createdAt,value
2022-09-16T00:00:52.404Z,96349.91
2022-09-16T00:01:54.005Z,96352.28
2022-09-16T00:02:57.103Z,96346.81
2022-09-16T00:03:58.848Z,96346.47
2022-09-16T00:05:00.365Z,96353.50
2022-09-16T00:06:01.873Z,96351.94
2022-09-16T00:07:05.120Z,96352.31
2022-09-16T00:08:06.970Z,96351.56
2022-09-16T00:09:09.732Z,96337.63
2022-09-16T00:10:12.255Z,96341.13
2022-09-16T00:11:14.772Z,96339.16
2022-09-16T00:12:16.414Z,96343.03
2022-09-16T00:13:18.958Z,96342.66
2022-09-16T00:14:20.508Z,96339.94
2022-09-16T00:15:22.073Z,96328.63
2022-09-16T00:16:26.411Z,96334.47
2022-09-16T00:17:30.055Z,96328.31
2022-09-16T00:18:31.554Z,96332.59
2022-09-16T00:19:33.100Z,96333.00
2022-09-16T00:20:34.663Z,96329.50
2022-09-16T00:21:36.284Z,96329.84
2022-09-16T00:22:38.082Z,96336.84
2022-09-16T00:23:39.756Z,96329.84
2022-09-16T00:24:41.260Z,96332.22
2022-09-16T00:25:42.868Z,96334.53
2022-09-16T00:26:44.587Z,96335.38
2022-09-16T00:27:49.195Z,96336.16
2022-09-16T00:28:50.986Z,96331.88
2022-09-16T00:29:52.765Z,96331.53
2022-09-16T00:30:54.379Z,96331.19
2022-09-16T00:31:56.121Z,96331.59
2022-09-16T00:32:57.680Z,96326.91
2022-09-16T00:33:59.162Z,96330.84
2022-09-16T00:35:00.711Z,96325.03
2022-09-16T00:36:09.712Z,96334.00
2022-09-16T00:37:11.271Z,96331.69
2022-09-16T00:38:13.213Z,96341.84
2022-09-16T00:39:14.785Z,96334.00
2022-09-16T00:40:16.427Z,96344.16
2022-09-16T00:41:20.724Z,96338.69
2022-09-16T00:42:22.215Z,96337.50
2022-09-16T00:43:23.820Z,96337.91
2022-09-16T00:44:59.036Z,96344.50
2022-09-16T00:46:05.205Z,96334.78
2022-09-16T00:47:06.818Z,96327.75
2022-09-16T00:48:12.678Z,96330.13
2022-09-16T00:49:31.237Z,96334.81
2022-09-16T00:50:51.265Z,96335.59
2022-09-16T00:51:57.418Z,96329.81
2022-09-16T00:53:00.374Z,96333.22
2022-09-16T00:54:04.903Z,96326.91
2022-09-16T00:55:09.937Z,96326.13
2022-09-16T00:56:14.682Z,96324.94
2022-09-16T00:57:16.940Z,96331.59
2022-09-16T00:58:28.116Z,96337.84
2022-09-16T00:59:37.096Z,96337.84
2022-09-16T01:00:38.923Z,96329.59
2022-09-16T01:01:43.684Z,96336.56
2022-09-16T01:02:47.551Z,96329.91
2022-09-16T01:03:54.165Z,96332.03
2022-09-16T01:05:04.987Z,96329.34
2022-09-16T01:06:06.873Z,96321.31
2022-09-16T01:07:08.544Z,96320.19
2022-09-16T01:08:10.130Z,96326.50
2022-09-16T01:09:12.474Z,96322.16
2022-09-16T01:10:16.278Z,96321.03
2022-09-16T01:11:17.839Z,96319.50
2022-09-16T01:12:19.394Z,96323.41
2022-09-16T01:13:20.931Z,96321.91
2022-09-16T01:14:43.782Z,96317.25
2022-09-16T01:15:55.066Z,96318.88
2022-09-16T01:17:12.912Z,96319.66
2022-09-16T01:18:36.178Z,96316.56
2022-09-16T01:19:43.788Z,96325.19
2022-09-16T01:21:26.853Z,96323.59
2022-09-16T01:22:34.448Z,96327.50
2022-09-16T01:24:13.749Z,96324.75
2022-09-16T01:25:28.449Z,96332.25
2022-09-16T01:27:00.801Z,96335.69
2022-09-16T01:28:54.770Z,96331.09
2022-09-16T01:30:06.762Z,96341.53
2022-09-16T01:31:20.362Z,96339.13
2022-09-16T01:32:53.772Z,96343.03
2022-09-16T01:34:12.985Z,96340.59
2022-09-16T01:35:38.016Z,96344.00
2022-09-16T01:36:58.606Z,96338.97
2022-09-16T01:38:09.220Z,96341.34
2022-09-16T01:39:10.730Z,96343.41
2022-09-16T01:40:49.384Z,96341.44
2022-09-16T01:41:58.599Z,96332.81
2022-09-16T01:43:19.992Z,96335.19
2022-09-16T01:44:29.481Z,96321.19
2022-09-16T01:45:44.027Z,96320.47
2022-09-16T01:46:53.674Z,96315.94
2022-09-16T01:48:23.358Z,96312.09
2022-09-16T01:49:41.704Z,96312.91
2022-09-16T01:51:06.613Z,96316.84
2022-09-16T01:52:08.069Z,96312.22
2022-09-16T01:53:15.554Z,96310.66
2022-09-16T01:54:34.113Z,96318.16
2022-09-16T01:55:46.943Z,96319.03
2022-09-16T01:57:17.536Z,96321.75
2022-09-16T01:58:23.778Z,96314.75
2022-09-16T01:59:34.404Z,96320.59
2022-09-16T02:00:40.472Z,96318.66
2022-09-16T02:02:06.429Z,96313.19
2022-09-16T02:03:12.495Z,96316.28
2022-09-16T02:04:20.677Z,96317.47
2022-09-16T02:05:28.241Z,96319.84
2022-09-16T02:06:31.755Z,96315.94
2022-09-16T02:07:38.488Z,96313.97
2022-09-16T02:08:57.089Z,96312.38
2022-09-16T02:10:06.644Z,96319.34
2022-09-16T02:11:12.476Z,96307.69
2022-09-16T02:12:21.566Z,96308.44
2022-09-16T02:13:40.208Z,96306.41
2022-09-16T02:14:45.891Z,96305.66
2022-09-16T02:15:51.613Z,96302.16
2022-09-16T02:16:59.445Z,96301.72
2022-09-16T02:18:11.034Z,96304.03
2022-09-16T02:19:17.505Z,96308.94
2022-09-16T02:20:25.875Z,96318.03
2022-09-16T02:21:29.905Z,96307.38
2022-09-16T02:22:42.071Z,96308.34
2022-09-16T02:23:55.029Z,96315.63
2022-09-16T02:25:00.094Z,96312.75
2022-09-16T02:26:05.578Z,96300.97
2022-09-16T02:27:13.394Z,96311.91
2022-09-16T02:28:22.640Z,96307.22
2022-09-16T02:29:29.028Z,96303.34
2022-09-16T02:30:31.749Z,96295.66
2022-09-16T02:31:37.593Z,96303.56
2022-09-16T02:32:43.625Z,96295.97
2022-09-16T02:33:49.320Z,96296.09
2022-09-16T02:34:54.631Z,96294.03
2022-09-16T02:35:56.770Z,96295.00
2022-09-16T02:38:17.999Z,96283.59
2022-09-16T02:39:24.738Z,96283.63
2022-09-16T02:40:38.646Z,96289.94
2022-09-16T02:41:41.593Z,96285.78
2022-09-16T02:42:43.264Z,96290.53
2022-09-16T02:43:45.974Z,96285.44
2022-09-16T02:44:47.656Z,96287.69
2022-09-16T02:46:18.154Z,96285.16
2022-09-16T02:47:29.511Z,96285.84
2022-09-16T02:48:58.714Z,96294.28
2022-09-16T02:50:15.741Z,96290.53
2022-09-16T02:51:42.074Z,96294.03
2022-09-16T02:52:46.435Z,96295.25
2022-09-16T02:54:29.050Z,96284.69
2022-09-16T02:56:03.010Z,96289.19
2022-09-16T02:57:05.133Z,96291.06
2022-09-16T02:58:07.391Z,96288.13
2022-09-16T02:59:12.724Z,96285.75
2022-09-16T03:00:14.268Z,96285.84
2022-09-16T03:01:17.994Z,96287.31
2022-09-16T03:02:19.882Z,96288.13
2022-09-16T03:03:21.647Z,96292.78
2022-09-16T03:04:23.273Z,96288.09
2022-09-16T03:05:29.582Z,96286.59
2022-09-16T03:06:36.032Z,96277.28
2022-09-16T03:07:41.347Z,96283.53
2022-09-16T03:08:44.486Z,96279.59
2022-09-16T03:09:49.217Z,96285.28
2022-09-16T03:10:53.048Z,96289.38
2022-09-16T03:12:25.246Z,96288.91
2022-09-16T03:13:44.311Z,96281.63
2022-09-16T03:14:54.290Z,96285.59
2022-09-16T03:16:18.091Z,96281.34
2022-09-16T03:17:47.344Z,96282.75
2022-09-16T03:18:51.901Z,96294.72
2022-09-16T03:20:13.735Z,96286.88
2022-09-16T03:21:21.500Z,96289.25
2022-09-16T03:23:04.008Z,96293.31
2022-09-16T03:24:25.978Z,96295.84
2022-09-16T03:25:43.322Z,96292.00
2022-09-16T03:26:53.910Z,96288.28
2022-09-16T03:28:02.752Z,96290.06
2022-09-16T03:29:30.655Z,96294.13
2022-09-16T03:30:34.810Z,96294.16
2022-09-16T03:31:46.872Z,96293.47
2022-09-16T03:33:05.663Z,96298.16
2022-09-16T03:34:10.709Z,96306.00
2022-09-16T03:35:20.445Z,96299.75
2022-09-16T03:36:34.825Z,96311.56
2022-09-16T03:37:38.461Z,96311.63
2022-09-16T03:38:42.378Z,96313.59
2022-09-16T03:39:50.645Z,96313.97
2022-09-16T03:40:53.249Z,96314.69
2022-09-16T03:41:55.639Z,96306.88
2022-09-16T03:42:58.017Z,96306.09
2022-09-16T03:44:03.979Z,96313.97
2022-09-16T03:45:07.000Z,96306.97
2022-09-16T03:46:12.379Z,96298.78
2022-09-16T03:47:14.547Z,96299.19
2022-09-16T03:48:16.074Z,96292.59
2022-09-16T03:49:17.611Z,96291.06
2022-09-16T03:50:21.863Z,96291.88
2022-09-16T03:51:24.412Z,96289.22
2022-09-16T03:52:25.944Z,96285.31
2022-09-16T03:53:27.455Z,96279.91
2022-09-16T03:54:28.984Z,96285.34
2022-09-16T03:55:30.747Z,96284.66
2022-09-16T03:56:32.278Z,96292.84
2022-09-16T03:57:34.307Z,96286.97
2022-09-16T03:58:35.907Z,96291.66
2022-09-16T03:59:37.427Z,96286.97
2022-09-16T04:00:38.946Z,96284.66
2022-09-16T04:01:40.627Z,96289.03
2022-09-16T04:02:42.185Z,96286.38
2022-09-16T04:03:43.782Z,96284.91
2022-09-16T04:04:45.540Z,96285.72
2022-09-16T04:05:53.338Z,96281.88
2022-09-16T04:06:54.916Z,96288.50
2022-09-16T04:07:56.509Z,96282.28
2022-09-16T04:08:59.247Z,96293.59
2022-09-16T04:10:02.000Z,96284.59
2022-09-16T04:11:05.627Z,96286.78
2022-09-16T04:12:07.642Z,96283.56
2022-09-16T04:13:09.842Z,96289.28
2022-09-16T04:14:11.521Z,96284.94
2022-09-16T04:15:13.451Z,96288.44
2022-09-16T04:16:21.357Z,96291.53
2022-09-16T04:17:24.032Z,96291.53
2022-09-16T04:18:26.116Z,96292.16
2022-09-16T04:19:27.763Z,96289.03
2022-09-16T04:20:29.292Z,96295.97
2022-09-16T04:21:30.844Z,96295.97
2022-09-16T04:22:32.379Z,96297.94
2022-09-16T04:23:34.442Z,96294.50
2022-09-16T04:24:36.135Z,96293.72
2022-09-16T04:25:37.696Z,96299.25
2022-09-16T04:26:39.190Z,96291.53
2022-09-16T04:27:40.762Z,96289.00
2022-09-16T04:28:42.356Z,96290.66
2022-09-16T04:29:43.883Z,96289.97
2022-09-16T04:30:45.461Z,96285.28
2022-09-16T04:31:47.033Z,96292.22
2022-09-16T04:32:53.700Z,96289.16
2022-09-16T04:33:55.473Z,96293.53
2022-09-16T04:34:56.977Z,96293.53
2022-09-16T04:36:13.140Z,96292.09
2022-09-16T04:37:14.774Z,96289.00
2022-09-16T04:38:16.308Z,96283.16
2022-09-16T04:39:17.948Z,96282.72
2022-09-16T04:40:19.511Z,96288.09
2022-09-16T04:41:23.320Z,96290.75
2022-09-16T04:42:24.845Z,96293.44
2022-09-16T04:43:26.411Z,96295.69
2022-09-16T04:44:30.161Z,96290.16
2022-09-16T04:45:31.676Z,96293.28
2022-09-16T04:46:33.461Z,96300.19
2022-09-16T04:47:35.127Z,96297.78
2022-09-16T04:48:37.429Z,96296.94
2022-09-16T04:49:38.959Z,96298.41
2022-09-16T04:50:40.507Z,96302.28
2022-09-16T04:51:42.053Z,96305.28
2022-09-16T04:52:44.081Z,96297.09
2022-09-16T04:53:47.115Z,96295.41
2022-09-16T04:54:48.740Z,96295.78
2022-09-16T04:55:50.297Z,96295.72
2022-09-16T04:56:51.829Z,96294.94
2022-09-16T04:57:53.423Z,96293.41
2022-09-16T04:58:58.823Z,96296.56
2022-09-16T05:00:00.462Z,96295.72
2022-09-16T05:01:12.998Z,96296.41
2022-09-16T05:02:14.545Z,96298.72
2022-09-16T05:03:16.068Z,96299.09
2022-09-16T05:04:17.774Z,96297.13
2022-09-16T05:05:19.358Z,96300.19
2022-09-16T05:06:24.015Z,96291.59
2022-09-16T05:07:25.559Z,96296.94
2022-09-16T05:08:27.078Z,96295.25
2022-09-16T05:09:28.736Z,96295.63
2022-09-16T05:10:30.386Z,96297.00
2022-09-16T05:11:37.249Z,96293.19
2022-09-16T05:12:39.063Z,96293.47
2022-09-16T05:13:41.358Z,96297.31
2022-09-16T05:14:42.965Z,96292.47
2022-09-16T05:15:47.611Z,96280.66
2022-09-16T05:16:52.532Z,96285.34
2022-09-16T05:17:54.051Z,96287.56
2022-09-16T05:18:57.601Z,96280.44
2022-09-16T05:19:59.297Z,96277.94
2022-09-16T05:21:02.916Z,96269.81
2022-09-16T05:22:07.185Z,96264.03
2022-09-16T05:23:08.864Z,96265.50
2022-09-16T05:24:12.350Z,96250.63
2022-09-16T05:25:13.927Z,96257.56
2022-09-16T05:26:24.548Z,96259.44
2022-09-16T05:27:28.042Z,96261.84
2022-09-16T05:28:29.957Z,96256.59
2022-09-16T05:29:31.492Z,96257.13
2022-09-16T05:30:33.019Z,96261.75
2022-09-16T05:31:39.861Z,96265.16
2022-09-16T05:32:41.404Z,96260.88
2022-09-16T05:33:45.516Z,96263.72
2022-09-16T05:34:47.096Z,96256.69
2022-09-16T05:35:48.608Z,96256.69
2022-09-16T05:36:53.832Z,96253.38
2022-09-16T05:37:55.333Z,96262.09
2022-09-16T05:39:21.655Z,96262.25
2022-09-16T05:40:18.848Z,96265.34
2022-09-16T05:41:20.638Z,96264.47
2022-09-16T05:42:22.231Z,96261.91
2022-09-16T05:43:23.735Z,96264.47
2022-09-16T05:44:27.189Z,96270.53
2022-09-16T05:45:32.222Z,96259.88
2022-09-16T05:46:35.080Z,96260.00
2022-09-16T05:47:36.597Z,96266.25
2022-09-16T05:48:38.103Z,96272.34
2022-09-16T05:49:39.653Z,96265.38
2022-09-16T05:50:41.240Z,96278.31
2022-09-16T05:51:42.765Z,96273.06
2022-09-16T05:52:44.283Z,96273.34
2022-09-16T05:53:46.898Z,96272.81
2022-09-16T05:54:48.468Z,96272.56
2022-09-16T05:56:02.093Z,96270.88
2022-09-16T05:57:07.118Z,96274.44
2022-09-16T05:58:09.000Z,96273.88
2022-09-16T05:59:12.170Z,96270.97
2022-09-16T06:00:14.640Z,96279.94
2022-09-16T06:01:18.661Z,96276.44
2022-09-16T06:02:20.310Z,96279.00
2022-09-16T06:03:21.905Z,96275.41
2022-09-16T06:04:23.443Z,96277.84
2022-09-16T06:05:24.983Z,96260.63
2022-09-16T06:06:40.803Z,96269.94
2022-09-16T06:07:42.316Z,96263.78
2022-09-16T06:08:43.896Z,96267.06
2022-09-16T06:09:45.799Z,96270.94
2022-09-16T06:10:47.432Z,96265.47
2022-09-16T06:11:51.770Z,96269.59
2022-09-16T06:12:53.276Z,96265.41
2022-09-16T06:14:01.511Z,96269.38
2022-09-16T06:15:03.053Z,96261.69
2022-09-16T06:16:06.677Z,96261.00
2022-09-16T06:17:08.237Z,96257.06
2022-09-16T06:18:11.736Z,96253.56
2022-09-16T06:19:15.938Z,96254.34
2022-09-16T06:20:17.451Z,96254.94
2022-09-16T06:21:18.976Z,96249.38
2022-09-16T06:22:20.573Z,96251.81
2022-09-16T06:23:22.789Z,96249.66
2022-09-16T06:24:24.489Z,96246.81
2022-09-16T06:25:26.069Z,96252.41
2022-09-16T06:26:28.499Z,96243.84
2022-09-16T06:27:31.884Z,96245.72
2022-09-16T06:28:33.870Z,96249.88
2022-09-16T06:29:35.388Z,96249.13
2022-09-16T06:30:38.080Z,96255.06
2022-09-16T06:31:40.531Z,96249.88
2022-09-16T06:32:42.053Z,96253.53
2022-09-16T06:33:44.626Z,96248.59
2022-09-16T06:34:46.187Z,96247.78
2022-09-16T06:35:47.792Z,96246.78
2022-09-16T06:36:49.330Z,96245.53
2022-09-16T06:37:50.904Z,96255.50
2022-09-16T06:38:52.484Z,96238.28
2022-09-16T06:39:54.081Z,96250.13
2022-09-16T06:40:59.668Z,96252.50
2022-09-16T06:42:01.240Z,96248.66
2022-09-16T06:43:02.783Z,96243.16
2022-09-16T06:44:04.320Z,96256.06
2022-09-16T06:45:06.733Z,96251.31
2022-09-16T06:46:13.680Z,96252.63
2022-09-16T06:47:15.543Z,96250.34
2022-09-16T06:48:17.063Z,96250.47
2022-09-16T06:49:18.548Z,96253.00
2022-09-16T06:50:20.066Z,96256.59
2022-09-16T06:51:24.248Z,96251.72
2022-09-16T06:52:26.206Z,96252.94
2022-09-16T06:53:28.652Z,96248.97
2022-09-16T06:54:30.167Z,96244.97
2022-09-16T06:55:31.693Z,96255.34
2022-09-16T06:56:36.144Z,96248.69
2022-09-16T06:57:37.787Z,96248.88
2022-09-16T06:58:42.262Z,96257.84
2022-09-16T06:59:43.814Z,96251.44
2022-09-16T07:00:45.576Z,96256.25
2022-09-16T07:01:47.206Z,96253.16
2022-09-16T07:02:48.851Z,96250.47
2022-09-16T07:03:52.470Z,96253.03
2022-09-16T07:04:53.985Z,96247.31
2022-09-16T07:06:03.131Z,96239.34
2022-09-16T07:07:09.692Z,96248.19
2022-09-16T07:08:12.051Z,96244.72
2022-09-16T07:09:13.634Z,96249.94
2022-09-16T07:10:15.258Z,96248.28
2022-09-16T07:11:19.477Z,96248.94
2022-09-16T07:12:20.980Z,96245.34
2022-09-16T07:13:22.987Z,96236.66
2022-09-16T07:14:26.438Z,96251.88
2022-09-16T07:15:28.016Z,96251.75
2022-09-16T07:16:29.630Z,96247.31
2022-09-16T07:17:31.315Z,96247.16
2022-09-16T07:18:33.121Z,96244.19
2022-09-16T07:19:34.749Z,96250.31
2022-09-16T07:20:36.272Z,96247.53
2022-09-16T07:21:38.015Z,96243.09
2022-09-16T07:22:39.770Z,96251.38
2022-09-16T07:23:42.499Z,96247.47
2022-09-16T07:24:44.128Z,96252.97
2022-09-16T07:25:46.423Z,96252.69
2022-09-16T07:26:48.034Z,96250.63
2022-09-16T07:27:49.850Z,96249.91
2022-09-16T07:28:51.424Z,96246.84
2022-09-16T07:29:54.225Z,96246.84
2022-09-16T07:30:55.794Z,96250.97
2022-09-16T07:31:57.402Z,96251.91
2022-09-16T07:32:58.986Z,96245.78
2022-09-16T07:34:04.394Z,96245.78
2022-09-16T07:35:06.602Z,96247.03
2022-09-16T07:36:09.917Z,96238.22
2022-09-16T07:37:12.790Z,96239.59
2022-09-16T07:38:14.310Z,96236.06
2022-09-16T07:39:17.746Z,96245.09
2022-09-16T07:40:19.484Z,96245.28
2022-09-16T07:41:23.563Z,96250.19
2022-09-16T07:42:25.058Z,96239.78
2022-09-16T07:43:27.666Z,96248.97
2022-09-16T07:44:29.414Z,96242.97
2022-09-16T07:45:31.000Z,96251.69
2022-09-16T07:46:35.433Z,96244.50
2022-09-16T07:47:36.953Z,96247.75
2022-09-16T07:48:39.385Z,96244.34
2022-09-16T07:49:40.953Z,96244.97
2022-09-16T07:50:42.642Z,96241.16
2022-09-16T07:51:44.687Z,96236.75
2022-09-16T07:52:46.280Z,96245.03
2022-09-16T07:53:48.581Z,96236.25
2022-09-16T07:54:50.597Z,96234.28
2022-09-16T07:55:52.133Z,96235.53
2022-09-16T07:56:53.721Z,96234.94
2022-09-16T07:57:55.320Z,96228.97
2022-09-16T07:58:57.636Z,96235.06
2022-09-16T07:59:59.721Z,96231.50
2022-09-16T08:01:04.843Z,96232.75
2022-09-16T08:02:07.031Z,96225.88
2022-09-16T08:03:08.737Z,96223.13
2022-09-16T08:04:10.814Z,96220.47
2022-09-16T08:05:13.347Z,96215.59
2022-09-16T08:06:20.964Z,96218.81
2022-09-16T08:07:22.487Z,96219.88
2022-09-16T08:08:24.131Z,96221.41
2022-09-16T08:09:38.821Z,96225.69
2022-09-16T08:10:43.409Z,96222.31
2022-09-16T08:11:45.129Z,96211.88
2022-09-16T08:12:48.431Z,96212.47
2022-09-16T08:13:50.373Z,96214.28
2022-09-16T08:14:51.977Z,96209.63
2022-09-16T08:15:54.489Z,96218.81
2022-09-16T08:16:56.280Z,96207.81
2022-09-16T08:17:57.963Z,96208.75
2022-09-16T08:19:00.071Z,96203.06
2022-09-16T08:20:06.007Z,96199.22
2022-09-16T08:21:09.227Z,96208.25
2022-09-16T08:22:10.804Z,96208.66
2022-09-16T08:23:14.282Z,96206.25
2022-09-16T08:24:16.563Z,96205.00
2022-09-16T08:25:18.112Z,96204.38
2022-09-16T08:26:20.756Z,96197.03
2022-09-16T08:27:22.459Z,96193.25
2022-09-16T08:28:24.305Z,96191.59
2022-09-16T08:29:26.148Z,96196.88
2022-09-16T08:30:27.732Z,96195.47
2022-09-16T08:31:29.450Z,96198.06
2022-09-16T08:32:31.385Z,96198.31
2022-09-16T08:33:33.052Z,96190.69
2022-09-16T08:34:34.778Z,96195.59
2022-09-16T08:35:36.625Z,96196.34
2022-09-16T08:36:38.179Z,96194.03
2022-09-16T08:37:40.257Z,96204.75
2022-09-16T08:38:43.870Z,96192.81
2022-09-16T08:39:48.379Z,96196.59
2022-09-16T08:40:50.492Z,96198.84
2022-09-16T08:42:23.287Z,96206.47
2022-09-16T08:43:38.709Z,96199.72
2022-09-16T08:45:00.413Z,96201.72
2022-09-16T08:46:10.291Z,96193.56
2022-09-16T08:47:32.228Z,96196.31
2022-09-16T08:48:58.738Z,96191.94
2022-09-16T08:50:04.441Z,96180.19
2022-09-16T08:51:11.957Z,96175.53
2022-09-16T08:52:37.443Z,96180.75
2022-09-16T08:53:43.710Z,96182.31
2022-09-16T08:54:50.566Z,96177.34
2022-09-16T08:55:53.176Z,96186.69
2022-09-16T08:57:00.729Z,96189.69
2022-09-16T08:58:14.833Z,96175.19
2022-09-16T08:59:23.821Z,96176.56
2022-09-16T09:00:25.717Z,96178.59
2022-09-16T09:01:40.349Z,96177.63
2022-09-16T09:02:47.782Z,96168.00
2022-09-16T09:03:49.712Z,96171.44
2022-09-16T09:04:51.265Z,96165.69
2022-09-16T09:05:56.195Z,96160.75
2022-09-16T09:07:21.048Z,96160.28
2022-09-16T09:08:54.582Z,96151.28
2022-09-16T09:10:10.855Z,96151.16
2022-09-16T09:11:12.522Z,96159.72
2022-09-16T09:12:39.854Z,96152.47
2022-09-16T09:14:07.268Z,96155.38
2022-09-16T09:15:12.015Z,96158.44
2022-09-16T09:16:22.410Z,96164.88
2022-09-16T09:17:49.932Z,96163.56
2022-09-16T09:19:03.958Z,96160.25
2022-09-16T09:20:37.744Z,96164.78
2022-09-16T09:21:52.057Z,96165.84
2022-09-16T09:23:19.988Z,96150.53
2022-09-16T09:24:52.390Z,96152.00
2022-09-16T09:26:04.236Z,96148.59
2022-09-16T09:27:16.441Z,96149.13
2022-09-16T09:28:24.391Z,96143.19
2022-09-16T09:30:03.598Z,96148.59
2022-09-16T09:31:17.019Z,96149.28
2022-09-16T09:32:46.344Z,96152.38
2022-09-16T09:33:56.910Z,96153.91
2022-09-16T09:34:58.364Z,96155.63
2022-09-16T09:36:12.040Z,96150.91
2022-09-16T09:37:22.682Z,96160.13
2022-09-16T09:38:27.425Z,96151.44
2022-09-16T09:39:56.161Z,96154.78
2022-09-16T09:41:06.124Z,96147.50
2022-09-16T09:42:21.254Z,96152.03
2022-09-16T09:43:28.515Z,96142.00
2022-09-16T09:44:48.191Z,96134.38
2022-09-16T09:45:59.036Z,96133.88
2022-09-16T09:47:11.472Z,96126.47
2022-09-16T09:48:35.148Z,96130.81
2022-09-16T09:49:46.687Z,96127.31
2022-09-16T09:50:50.417Z,96127.88
2022-09-16T09:52:00.156Z,96130.44
2022-09-16T09:53:07.320Z,96120.59
2022-09-16T09:54:26.354Z,96130.50
2022-09-16T09:55:32.919Z,96120.47
2022-09-16T09:56:40.221Z,96121.94
2022-09-16T09:58:06.429Z,96121.88
2022-09-16T09:59:26.434Z,96128.84
2022-09-16T10:00:28.206Z,96135.38
2022-09-16T10:01:30.113Z,96129.97
2022-09-16T10:02:31.742Z,96139.19
2022-09-16T10:03:33.558Z,96134.72
2022-09-16T10:04:39.013Z,96127.38
2022-09-16T10:05:41.332Z,96135.94
2022-09-16T10:06:45.946Z,96131.03
2022-09-16T10:07:48.260Z,96137.00
2022-09-16T10:08:52.181Z,96136.91
2022-09-16T10:10:12.635Z,96137.44
2022-09-16T10:11:22.108Z,96137.38
2022-09-16T10:12:32.929Z,96140.38
2022-09-16T10:13:34.549Z,96145.13
2022-09-16T10:14:38.304Z,96141.88
2022-09-16T10:15:40.492Z,96146.69
2022-09-16T10:16:50.062Z,96149.28
2022-09-16T10:17:53.057Z,96148.63
2022-09-16T10:19:03.592Z,96153.25
2022-09-16T10:20:23.865Z,96161.41
2022-09-16T10:21:25.918Z,96171.56
2022-09-16T10:22:30.342Z,96178.63
2022-09-16T10:23:33.180Z,96183.25
2022-09-16T10:24:36.265Z,96174.94
2022-09-16T10:25:38.214Z,96181.25
2022-09-16T10:26:41.169Z,96185.78
2022-09-16T10:27:42.741Z,96180.28
2022-09-16T10:29:15.440Z,96182.31
2022-09-16T10:30:19.557Z,96194.97
2022-09-16T10:31:22.590Z,96195.19
2022-09-16T10:32:24.386Z,96197.72
2022-09-16T10:33:34.184Z,96205.72
2022-09-16T10:34:41.958Z,96199.84
2022-09-16T10:35:55.196Z,96210.34
2022-09-16T10:37:16.471Z,96206.19
2022-09-16T10:38:20.441Z,96208.88
2022-09-16T10:39:25.254Z,96208.81
2022-09-16T10:40:27.813Z,96208.50
2022-09-16T10:41:34.347Z,96226.56
2022-09-16T10:42:36.064Z,96215.34
2022-09-16T10:43:39.739Z,96213.47
2022-09-16T10:44:42.145Z,96209.94
2022-09-16T10:45:47.737Z,96204.06
2022-09-16T10:46:55.476Z,96218.13
2022-09-16T10:48:03.396Z,96215.53
2022-09-16T10:49:12.763Z,96203.88
2022-09-16T10:50:20.145Z,96220.34
2022-09-16T10:51:33.428Z,96224.03
2022-09-16T10:52:44.286Z,96218.13
2022-09-16T10:53:51.953Z,96221.59
2022-09-16T10:54:54.698Z,96219.94
2022-09-16T10:55:58.202Z,96220.13
2022-09-16T10:56:59.737Z,96226.66
2022-09-16T10:58:17.387Z,96219.25
2022-09-16T10:59:18.984Z,96228.25
2022-09-16T11:00:25.066Z,96233.16
2022-09-16T11:01:58.923Z,96246.38
2022-09-16T11:03:12.696Z,96228.94
2022-09-16T11:04:17.243Z,96243.97
2022-09-16T11:05:29.125Z,96241.56
2022-09-16T11:06:56.966Z,96230.34
2022-09-16T11:08:26.018Z,96242.91
2022-09-16T11:10:14.985Z,96231.13
2022-09-16T11:11:39.492Z,96230.28
2022-09-16T11:12:49.997Z,96233.28
2022-09-16T11:14:03.748Z,96224.94
2022-09-16T11:15:21.373Z,96222.34
2022-09-16T11:16:44.211Z,96224.81
2022-09-16T11:18:16.504Z,96218.84
2022-09-16T11:19:45.925Z,96239.81
2022-09-16T11:21:16.697Z,96214.09
2022-09-16T11:22:47.642Z,96213.63
2022-09-16T11:24:22.073Z,96201.72
2022-09-16T11:25:53.221Z,96210.13
2022-09-16T11:26:54.685Z,96205.84
2022-09-16T11:28:17.083Z,96197.88
2022-09-16T11:29:36.943Z,96196.38
2022-09-16T11:30:54.920Z,96195.28
2022-09-16T11:32:21.854Z,96185.00
2022-09-16T11:33:42.041Z,96183.16
2022-09-16T11:34:49.662Z,96182.25
2022-09-16T11:36:00.294Z,96188.06
2022-09-16T11:37:13.857Z,96179.50
2022-09-16T11:38:43.800Z,96179.50
2022-09-16T11:40:12.019Z,96169.22
2022-09-16T11:41:41.055Z,96163.50
2022-09-16T11:42:50.059Z,96169.97
2022-09-16T11:44:26.674Z,96172.84
2022-09-16T11:45:40.433Z,96164.00
2022-09-16T11:46:51.035Z,96152.78
2022-09-16T11:48:17.056Z,96170.88
2022-09-16T11:49:21.459Z,96170.28
2022-09-16T11:50:34.908Z,96158.28
2022-09-16T11:52:01.373Z,96157.53
2022-09-16T11:53:05.323Z,96146.38
2022-09-16T11:54:48.790Z,96156.63
2022-09-16T11:56:25.444Z,96154.47
2022-09-16T11:57:35.487Z,96171.50
2022-09-16T11:58:43.155Z,96172.72
2022-09-16T12:00:00.146Z,96160.59
2022-09-16T12:01:23.447Z,96152.47
2022-09-16T12:02:31.021Z,96144.09
2022-09-16T12:03:39.792Z,96146.53
2022-09-16T12:04:53.843Z,96142.28
2022-09-16T12:06:05.518Z,96159.75
2022-09-16T12:07:30.405Z,96152.69
2022-09-16T12:08:54.564Z,96151.91
2022-09-16T12:10:06.439Z,96149.56
2022-09-16T12:11:27.303Z,96148.66
2022-09-16T12:12:38.881Z,96150.41
2022-09-16T12:13:44.623Z,96143.22
2022-09-16T12:14:54.974Z,96158.09
2022-09-16T12:16:02.419Z,96153.81
2022-09-16T12:17:17.112Z,96158.09
2022-09-16T12:18:26.734Z,96155.63
2022-09-16T12:19:34.029Z,96147.03
2022-09-16T12:20:42.876Z,96143.63
2022-09-16T12:21:57.653Z,96145.84
2022-09-16T12:23:24.201Z,96147.59
2022-09-16T12:24:48.344Z,96148.28
2022-09-16T12:26:12.301Z,96143.06
2022-09-16T12:27:44.427Z,96141.44
2022-09-16T12:29:18.963Z,96144.47
2022-09-16T12:30:25.662Z,96133.97
2022-09-16T12:32:00.265Z,96139.56
2022-09-16T12:33:17.293Z,96138.69
2022-09-16T12:34:39.705Z,96143.75
2022-09-16T12:36:03.984Z,96134.13
2022-09-16T12:37:47.286Z,96144.69
2022-09-16T12:38:55.595Z,96145.47
2022-09-16T12:39:57.373Z,96143.94
2022-09-16T12:41:17.521Z,96142.31
2022-09-16T12:42:48.722Z,96144.91
2022-09-16T12:44:23.253Z,96140.50
2022-09-16T12:45:49.525Z,96140.94
2022-09-16T12:47:11.881Z,96135.97
2022-09-16T12:48:35.060Z,96135.97
2022-09-16T12:50:01.219Z,96136.94
2022-09-16T12:51:10.739Z,96138.06
2022-09-16T12:52:21.074Z,96141.88
2022-09-16T12:53:34.361Z,96144.75
2022-09-16T12:55:07.628Z,96145.56
2022-09-16T12:56:14.266Z,96146.44
2022-09-16T12:57:41.123Z,96148.72
2022-09-16T12:59:07.098Z,96153.88
2022-09-16T13:00:14.713Z,96148.44
2022-09-16T13:01:26.780Z,96149.13
2022-09-16T13:02:36.279Z,96148.75
2022-09-16T13:03:42.585Z,96151.69
2022-09-16T13:04:49.536Z,96152.53
2022-09-16T13:05:53.860Z,96146.31
2022-09-16T13:06:59.847Z,96153.47
2022-09-16T13:08:08.109Z,96138.03
2022-09-16T13:09:22.411Z,96139.81
2022-09-16T13:10:46.747Z,96141.59
2022-09-16T13:12:36.662Z,96143.13
2022-09-16T13:13:43.091Z,96140.44
2022-09-16T13:14:55.064Z,96139.94
2022-09-16T13:15:59.096Z,96140.44
2022-09-16T13:17:02.506Z,96149.66
2022-09-16T13:18:16.620Z,96151.59
2022-09-16T13:19:23.838Z,96150.09
2022-09-16T13:20:36.753Z,96150.19
2022-09-16T13:21:47.516Z,96148.84
2022-09-16T13:22:55.143Z,96159.47
2022-09-16T13:24:25.347Z,96152.47
2022-09-16T13:25:33.265Z,96160.78